Time;durP1;ratioP1;P1;durP2;ratioP2;P2;SDS_P1;SDS_P2;PMS_P1;PMS_P2;Temp;Humidity;BMP_temperature;BMP_pressure;BME280_temperature;BME280_humidity;BME280_pressure;Samples;Min_cycle;Max_cycle;Signal;HPM_P1;HPM_P2
2022/11/17 00:00:40;;;;;;;3.50;1.50;;;12.40;99.90;;;;;;5026113;28;20692;-76
2022/11/17 00:03:08;;;;;;;7.43;1.95;;;12.30;99.90;;;;;;5032079;28;20516;-83
2022/11/17 00:05:34;;;;;;;3.33;1.55;;;12.20;99.90;;;;;;5031647;28;20024;-74
2022/11/17 00:08:03;;;;;;;4.57;1.63;;;12.20;99.90;;;;;;5031951;28;20014;-86
2022/11/17 00:10:28;;;;;;;6.85;1.73;;;12.10;99.90;;;;;;5035062;28;20094;-77
2022/11/17 00:15:42;;;;;;;6.72;1.63;;;11.90;99.90;;;;;;5031572;28;20159;-86
2022/11/17 00:23:48;;;;;;;4.13;1.65;;;11.70;99.90;;;;;;5034021;28;20036;-80
2022/11/17 00:26:17;;;;;;;2.40;1.50;;;11.70;99.90;;;;;;5030377;28;20025;-85
2022/11/17 00:28:43;;;;;;;4.95;1.95;;;11.70;99.90;;;;;;5032039;28;20052;-84
2022/11/17 00:34:03;;;;;;;6.22;2.38;;;11.70;99.90;;;;;;5023361;28;20041;-79
2022/11/17 00:36:39;;;;;;;6.20;2.10;;;11.70;99.90;;;;;;5024993;28;20029;-79
2022/11/17 00:39:06;;;;;;;3.80;1.95;;;11.70;99.90;;;;;;5028359;28;20033;-83
2022/11/17 00:41:34;;;;;;;7.30;1.70;;;11.70;99.90;;;;;;5022411;28;20033;-80
2022/11/17 00:44:00;;;;;;;7.70;2.20;;;11.60;99.90;;;;;;5026155;28;20084;-80
2022/11/17 00:46:26;;;;;;;11.50;2.40;;;11.60;99.90;;;;;;5032657;28;20021;-88
2022/11/17 00:48:54;;;;;;;5.93;1.83;;;11.60;99.90;;;;;;5035505;28;20080;-75
2022/11/17 00:51:24;;;;;;;3.33;1.70;;;11.60;99.90;;;;;;5030871;28;20029;-87
2022/11/17 00:53:50;;;;;;;5.63;1.70;;;11.60;99.90;;;;;;5032227;28;20095;-81
2022/11/17 00:56:16;;;;;;;8.77;1.83;;;11.60;99.90;;;;;;5033735;28;20446;-82
2022/11/17 00:58:44;;;;;;;8.52;1.52;;;11.60;99.90;;;;;;5029497;28;20044;-81
2022/11/17 01:01:10;;;;;;;5.30;1.65;;;11.60;99.90;;;;;;5034297;28;20044;-85
2022/11/17 01:03:39;;;;;;;10.23;1.58;;;11.60;99.90;;;;;;5037397;28;20018;-79
2022/11/17 01:06:07;;;;;;;5.93;1.75;;;11.60;99.90;;;;;;5030445;28;20021;-79
2022/11/17 01:08:33;;;;;;;3.33;1.63;;;11.60;99.90;;;;;;5036215;28;20021;-79
2022/11/17 01:11:25;;;;;;;8.23;1.40;;;11.60;99.90;;;;;;5038289;28;20034;-82
2022/11/17 01:13:54;;;;;;;8.38;2.20;;;11.60;99.90;;;;;;5028227;28;20522;-76
2022/11/17 01:16:25;;;;;;;8.88;1.48;;;11.70;99.90;;;;;;5037685;28;20044;-75
2022/11/17 01:18:51;;;;;;;4.80;1.55;;;11.60;99.90;;;;;;5041057;28;20045;-80
2022/11/17 01:21:21;;;;;;;5.13;1.35;;;11.60;99.90;;;;;;5042311;28;20030;-77
2022/11/17 01:23:49;;;;;;;3.03;1.30;;;11.60;99.90;;;;;;5029081;28;20014;-76
2022/11/17 01:26:21;;;;;;;4.28;1.40;;;11.60;99.90;;;;;;5037559;28;20026;-83
2022/11/17 01:28:47;;;;;;;6.85;1.48;;;11.60;99.90;;;;;;5033069;28;20058;-75
2022/11/17 01:31:19;;;;;;;5.93;1.23;;;11.60;99.90;;;;;;5032066;28;20083;-83
2022/11/17 01:33:45;;;;;;;4.15;1.23;;;11.60;99.90;;;;;;5028417;28;20037;-79
2022/11/17 01:36:14;;;;;;;4.00;1.58;;;11.50;99.90;;;;;;5034307;28;20025;-77
2022/11/17 01:38:41;;;;;;;6.38;1.05;;;11.50;99.90;;;;;;5033529;28;20244;-86
2022/11/17 01:41:16;;;;;;;4.78;1.73;;;11.40;99.90;;;;;;5028239;28;20088;-84
2022/11/17 01:43:48;;;;;;;3.72;1.05;;;11.40;99.90;;;;;;5034866;28;20031;-83
2022/11/17 01:46:36;;;;;;;2.25;1.27;;;11.50;99.90;;;;;;5033858;28;20025;-84
2022/11/17 01:49:13;;;;;;;4.20;1.30;;;11.50;99.90;;;;;;5035202;28;20022;-84
2022/11/17 01:51:46;;;;;;;3.40;1.35;;;11.50;99.90;;;;;;5035157;28;20737;-81
2022/11/17 01:54:20;;;;;;;5.10;1.30;;;11.50;99.90;;;;;;5036470;28;20041;-80
2022/11/17 01:56:51;;;;;;;7.18;1.58;;;11.50;99.90;;;;;;5026630;28;20025;-83
2022/11/17 01:59:43;;;;;;;4.88;1.30;;;11.50;99.90;;;;;;5032354;28;20021;-85
2022/11/17 02:02:09;;;;;;;4.25;1.20;;;11.50;99.90;;;;;;5029662;28;20049;-75
2022/11/17 02:04:46;;;;;;;5.80;1.10;;;11.40;99.90;;;;;;5034818;28;20033;-79
2022/11/17 02:07:20;;;;;;;5.07;1.42;;;11.30;99.90;;;;;;5036516;28;20037;-80
2022/11/17 02:09:46;;;;;;;5.30;1.60;;;11.30;99.90;;;;;;5041183;28;20101;-76
2022/11/17 02:12:14;;;;;;;5.25;1.10;;;11.30;99.90;;;;;;5038876;28;20117;-75
2022/11/17 02:14:42;;;;;;;5.25;1.27;;;11.30;99.90;;;;;;5032101;28;20029;-81
2022/11/17 02:17:08;;;;;;;5.82;1.30;;;11.30;99.90;;;;;;5029639;28;20018;-78
2022/11/17 02:19:39;;;;;;;4.22;1.40;;;11.30;99.90;;;;;;5037039;28;20064;-78
2022/11/17 02:22:43;;;;;;;5.30;1.25;;;11.30;99.90;;;;;;5027084;28;20036;-84
2022/11/17 02:25:29;;;;;;;3.42;1.30;;;11.20;99.90;;;;;;5030308;28;20025;-85
2022/11/17 02:28:28;;;;;;;5.85;1.30;;;11.30;99.90;;;;;;5032493;28;20043;-85
2022/11/17 02:31:02;;;;;;;1.67;0.98;;;11.30;99.90;;;;;;5037193;28;20029;-85
2022/11/17 02:33:39;;;;;;;1.63;1.17;;;11.20;99.90;;;;;;5037879;28;20033;-77
2022/11/17 02:36:43;;;;;;;2.78;1.25;;;11.30;99.90;;;;;;5030053;28;20030;-78
2022/11/17 02:39:16;;;;;;;2.85;1.15;;;11.30;99.90;;;;;;5032662;28;20040;-83
2022/11/17 02:42:00;;;;;;;3.08;1.00;;;11.30;99.90;;;;;;5020678;28;20034;-83
2022/11/17 02:44:43;;;;;;;;;;;11.30;99.90;;;;;;5029259;28;20053;-84
2022/11/17 02:47:22;;;;;;;3.35;1.17;;;11.30;99.90;;;;;;5033608;28;20309;-77
2022/11/17 02:49:55;;;;;;;4.90;1.40;;;11.30;99.90;;;;;;5031443;28;20113;-84
2022/11/17 02:52:22;;;;;;;2.15;1.00;;;11.30;99.90;;;;;;5029812;28;20116;-82
2022/11/17 02:54:48;;;;;;;3.85;1.15;;;11.40;99.90;;;;;;5036042;28;20067;-84
2022/11/17 02:57:31;;;;;;;4.43;1.15;;;11.40;99.90;;;;;;5034647;28;20446;-77
2022/11/17 03:00:05;;;;;;;1.98;1.20;;;11.50;99.90;;;;;;5027856;28;20041;-79
2022/11/17 03:02:54;;;;;;;3.55;0.90;;;11.40;99.90;;;;;;5034188;28;20040;-75
2022/11/17 03:05:47;;;;;;;3.42;1.25;;;11.40;99.90;;;;;;5037859;28;20021;-75
2022/11/17 03:08:39;;;;;;;1.38;1.27;;;11.50;99.90;;;;;;5029763;28;20036;-74
2022/11/17 03:11:06;;;;;;;3.25;1.25;;;11.60;99.90;;;;;;5030492;28;20605;-75
2022/11/17 03:14:09;;;;;;;3.15;1.25;;;11.70;99.90;;;;;;5027023;28;20030;-75
2022/11/17 03:16:43;;;;;;;1.10;0.88;;;11.70;99.90;;;;;;5028228;28;20029;-82
2022/11/17 03:19:21;;;;;;;1.50;0.95;;;11.60;99.90;;;;;;5019141;28;20084;-75
2022/11/17 03:22:02;;;;;;;1.88;0.90;;;11.60;99.90;;;;;;5033105;28;20057;-75
2022/11/17 03:24:32;;;;;;;5.07;0.70;;;11.70;99.90;;;;;;5035103;28;20032;-74
2022/11/17 03:27:10;;;;;;;3.17;1.10;;;11.80;99.90;;;;;;5030182;28;20398;-75
2022/11/17 03:29:40;;;;;;;7.20;1.10;;;11.80;99.90;;;;;;5031456;28;20341;-76
2022/11/17 03:32:08;;;;;;;5.05;1.23;;;11.80;99.90;;;;;;5027961;28;20056;-76
2022/11/17 03:34:41;;;;;;;1.38;0.90;;;11.70;99.90;;;;;;5031363;28;20018;-76
2022/11/17 03:37:10;;;;;;;1.10;1.00;;;11.60;99.90;;;;;;5030898;28;20071;-78
2022/11/17 03:39:40;;;;;;;2.28;1.38;;;11.60;99.90;;;;;;5028703;28;20463;-72
2022/11/17 03:42:24;;;;;;;2.88;1.15;;;11.60;99.90;;;;;;5030825;28;20032;-79
2022/11/17 03:44:59;;;;;;;3.95;1.27;;;11.60;99.90;;;;;;5032186;28;20037;-79
2022/11/17 03:47:27;;;;;;;1.70;0.98;;;11.60;99.90;;;;;;5028837;28;20021;-75
2022/11/17 03:50:23;;;;;;;2.60;0.93;;;11.50;99.90;;;;;;5032390;28;20021;-76
2022/11/17 03:52:49;;;;;;;3.22;1.02;;;11.50;99.90;;;;;;5037758;28;20017;-79
2022/11/17 03:55:15;;;;;;;5.30;1.38;;;11.50;99.90;;;;;;5041066;28;20033;-79
2022/11/17 03:58:15;;;;;;;1.40;1.10;;;11.50;99.90;;;;;;5031706;28;20086;-79
2022/11/17 04:00:42;;;;;;;1.67;1.08;;;11.50;99.90;;;;;;5032974;28;20347;-80
2022/11/17 04:03:08;;;;;;;2.75;1.15;;;11.50;99.90;;;;;;5029377;28;20419;-77
2022/11/17 04:05:33;;;;;;;1.60;0.95;;;11.50;99.90;;;;;;5025231;28;20032;-74
2022/11/17 04:07:59;;;;;;;3.47;0.98;;;11.50;99.90;;;;;;5032270;28;20378;-79
2022/11/17 04:10:25;;;;;;;1.33;1.13;;;11.50;99.90;;;;;;5040033;28;20032;-75
2022/11/17 04:15:55;;;;;;;2.70;0.90;;;11.50;99.90;;;;;;5033194;28;20120;-75
2022/11/17 04:18:22;;;;;;;3.00;1.02;;;11.60;99.90;;;;;;5028389;28;20040;-75
2022/11/17 04:20:56;;;;;;;2.03;1.08;;;11.50;99.90;;;;;;5032192;28;20053;-75
2022/11/17 04:23:22;;;;;;;3.40;0.90;;;11.50;99.90;;;;;;5029523;28;20045;-77
2022/11/17 04:28:49;;;;;;;0.90;0.90;;;11.60;99.90;;;;;;5024464;28;20058;-75
2022/11/17 04:31:18;;;;;;;3.40;1.20;;;11.60;99.90;;;;;;5030719;28;20148;-75
2022/11/17 04:33:45;;;;;;;1.27;1.08;;;11.60;99.90;;;;;;5045309;28;20104;-77
2022/11/17 04:36:13;;;;;;;3.05;1.60;;;11.60;99.90;;;;;;5038602;28;20037;-79
2022/11/17 04:38:48;;;;;;;3.63;1.17;;;11.60;99.90;;;;;;5034568;28;20056;-76
2022/11/17 04:44:00;;;;;;;1.55;1.13;;;11.60;99.90;;;;;;5031824;28;20044;-75
2022/11/17 04:46:29;;;;;;;0.82;0.80;;;11.60;99.90;;;;;;5032524;28;20056;-75
2022/11/17 04:48:57;;;;;;;2.05;1.10;;;11.50;99.90;;;;;;5013462;28;20133;-76
2022/11/17 04:51:24;;;;;;;4.15;1.00;;;11.60;99.90;;;;;;5025842;28;20451;-75
2022/11/17 04:53:51;;;;;;;3.92;1.10;;;11.60;99.90;;;;;;5025401;28;20041;-76
2022/11/17 04:56:18;;;;;;;2.95;0.90;;;11.50;99.90;;;;;;5031122;28;20021;-74
2022/11/17 04:58:44;;;;;;;1.65;0.80;;;11.60;99.90;;;;;;5032201;28;20426;-78
2022/11/17 05:01:13;;;;;;;3.92;0.98;;;11.60;99.90;;;;;;5036898;28;20113;-77
2022/11/17 05:03:46;;;;;;;2.25;1.15;;;11.60;99.90;;;;;;5039801;28;20048;-77
2022/11/17 05:06:25;;;;;;;1.90;1.20;;;11.60;99.90;;;;;;5046391;28;20024;-76
2022/11/17 05:08:55;;;;;;;2.67;1.30;;;11.50;99.90;;;;;;5035888;28;20473;-77
2022/11/17 05:14:07;;;;;;;0.95;0.90;;;11.50;99.90;;;;;;5031035;28;20041;-75
2022/11/17 05:19:22;;;;;;;4.05;0.90;;;11.60;99.90;;;;;;5030666;28;20417;-76
2022/11/17 05:21:49;;;;;;;1.65;1.30;;;11.60;99.90;;;;;;5037790;28;20025;-73
2022/11/17 05:24:15;;;;;;;4.90;0.80;;;11.60;99.90;;;;;;5032745;28;20060;-77
2022/11/17 05:26:42;;;;;;;2.13;1.17;;;11.70;99.90;;;;;;5032854;28;20053;-79
2022/11/17 05:29:12;;;;;;;2.72;1.10;;;11.70;99.90;;;;;;5044067;28;20021;-76
2022/11/17 05:31:40;;;;;;;2.25;1.08;;;11.70;99.90;;;;;;5024090;28;20117;-78
2022/11/17 05:34:07;;;;;;;2.15;1.10;;;11.80;99.90;;;;;;5038972;28;20090;-80
2022/11/17 05:36:35;;;;;;;5.05;2.95;;;11.80;99.90;;;;;;5023402;28;20033;-78
2022/11/17 05:39:01;;;;;;;1.67;0.98;;;11.80;99.90;;;;;;5036676;28;20524;-77
2022/11/17 05:41:30;;;;;;;4.43;1.08;;;11.80;99.90;;;;;;5034853;28;20037;-80
2022/11/17 05:43:59;;;;;;;3.03;1.17;;;11.90;99.90;;;;;;5037737;28;20595;-78
2022/11/17 05:46:27;;;;;;;3.03;1.00;;;11.90;99.90;;;;;;5037453;28;20040;-77
2022/11/17 05:48:55;;;;;;;2.33;1.17;;;11.90;99.90;;;;;;5035534;28;20044;-77
2022/11/17 05:51:26;;;;;;;1.55;1.25;;;11.90;99.90;;;;;;5037814;28;20033;-82
2022/11/17 05:53:52;;;;;;;2.88;1.05;;;11.90;99.90;;;;;;5032249;28;20042;-79
2022/11/17 05:56:27;;;;;;;2.15;1.10;;;11.90;99.90;;;;;;5041174;28;20026;-80
2022/11/17 05:59:12;;;;;;;5.80;1.33;;;11.90;99.90;;;;;;5034904;28;20022;-80
2022/11/17 06:01:45;;;;;;;2.70;1.23;;;11.80;99.90;;;;;;5033082;28;20036;-78
2022/11/17 06:04:15;;;;;;;5.20;1.50;;;11.80;99.90;;;;;;5030091;28;20045;-79
2022/11/17 06:06:41;;;;;;;2.22;1.40;;;11.70;99.90;;;;;;5026519;28;20034;-79
2022/11/17 06:09:06;;;;;;;4.55;1.45;;;11.60;99.90;;;;;;5029520;28;20066;-85
2022/11/17 06:11:32;;;;;;;2.78;1.15;;;11.60;99.90;;;;;;5026811;28;20354;-75
2022/11/17 06:14:00;;;;;;;2.15;1.20;;;11.50;99.90;;;;;;5032225;28;20024;-73
2022/11/17 06:16:30;;;;;;;1.73;1.30;;;11.50;99.90;;;;;;5033888;28;20036;-77
2022/11/17 06:19:04;;;;;;;5.13;1.65;;;11.50;99.90;;;;;;5033321;28;20390;-76
2022/11/17 06:21:30;;;;;;;4.00;1.80;;;11.50;99.90;;;;;;5031201;28;20048;-78
2022/11/17 06:23:59;;;;;;;6.35;1.75;;;11.50;99.90;;;;;;5038252;28;20037;-77
2022/11/17 06:26:25;;;;;;;2.58;1.50;;;11.50;99.90;;;;;;5032365;28;20026;-77
2022/11/17 06:28:51;;;;;;;4.40;1.58;;;11.50;99.90;;;;;;5035792;28;20014;-76
2022/11/17 06:31:17;;;;;;;6.35;1.17;;;11.50;99.90;;;;;;5038449;28;20028;-76
2022/11/17 06:33:44;;;;;;;2.45;1.55;;;11.50;99.90;;;;;;5031463;28;20025;-79
2022/11/17 06:36:14;;;;;;;5.43;2.05;;;11.50;99.90;;;;;;5034903;28;20041;-77
2022/11/17 06:38:42;;;;;;;6.68;1.50;;;11.50;99.90;;;;;;5030626;28;20051;-77
2022/11/17 06:41:08;;;;;;;1.50;1.13;;;11.50;99.90;;;;;;5033619;28;20486;-76
2022/11/17 06:43:34;;;;;;;6.40;1.70;;;11.60;99.90;;;;;;5033550;28;20094;-77
2022/11/17 06:46:06;;;;;;;7.30;1.55;;;11.60;99.90;;;;;;5034889;28;20029;-76
2022/11/17 06:48:34;;;;;;;6.18;1.70;;;11.60;99.90;;;;;;5038134;28;20025;-83
2022/11/17 06:51:02;;;;;;;3.20;1.77;;;11.60;99.90;;;;;;5037084;28;20466;-76
2022/11/17 06:53:28;;;;;;;5.43;1.90;;;11.60;99.90;;;;;;5030193;28;20029;-77
2022/11/17 06:58:31;;;;;;;4.55;1.77;;;11.70;99.90;;;;;;5032620;28;20458;-79
2022/11/17 07:01:08;;;;;;;1.90;1.42;;;11.70;99.90;;;;;;5029148;28;20033;-79
2022/11/17 07:03:36;;;;;;;2.80;1.67;;;11.80;99.90;;;;;;5028352;28;20465;-77
2022/11/17 07:06:02;;;;;;;6.93;2.15;;;11.80;99.90;;;;;;5026018;28;20112;-77
2022/11/17 07:08:34;;;;;;;12.85;2.08;;;11.80;99.90;;;;;;5034633;28;20067;-78
2022/11/17 07:11:11;;;;;;;2.58;1.88;;;11.80;99.90;;;;;;5030673;28;20048;-75
2022/11/17 07:13:37;;;;;;;6.25;1.80;;;11.80;99.90;;;;;;5034443;28;20041;-75
2022/11/17 07:16:08;;;;;;;6.00;1.65;;;11.80;99.90;;;;;;5033488;28;20040;-76
2022/11/17 07:18:36;;;;;;;2.92;1.77;;;11.80;99.90;;;;;;5032512;28;20120;-75
2022/11/17 07:21:04;;;;;;;4.60;1.58;;;11.80;99.90;;;;;;5032227;28;20123;-75
2022/11/17 07:23:33;;;;;;;6.93;2.10;;;11.80;99.90;;;;;;5026128;28;20033;-75
2022/11/17 07:26:00;;;;;;;4.15;1.80;;;11.80;99.90;;;;;;5026618;28;20109;-77
2022/11/17 07:28:26;;;;;;;10.40;1.77;;;11.80;99.90;;;;;;5029422;28;20462;-76
2022/11/17 07:30:54;;;;;;;2.95;1.65;;;11.90;99.90;;;;;;5026183;28;20160;-77
2022/11/17 07:33:21;;;;;;;1.88;1.40;;;11.90;99.90;;;;;;5030224;28;20029;-75
2022/11/17 07:35:49;;;;;;;3.08;1.58;;;11.90;99.90;;;;;;5029767;28;20025;-79
2022/11/17 07:38:15;;;;;;;5.97;1.38;;;11.90;99.90;;;;;;5031097;28;20140;-81
2022/11/17 07:40:40;;;;;;;2.53;1.40;;;12.00;99.90;;;;;;5031582;28;20113;-77
2022/11/17 07:43:09;;;;;;;3.80;1.60;;;12.00;99.90;;;;;;5028427;28;20022;-77
2022/11/17 07:45:35;;;;;;;4.85;1.67;;;12.10;99.90;;;;;;5034694;28;20022;-79
2022/11/17 07:48:05;;;;;;;3.40;1.60;;;12.00;99.90;;;;;;5030728;28;20029;-76
2022/11/17 07:50:35;;;;;;;2.22;1.38;;;12.10;99.90;;;;;;5027223;28;20048;-76
2022/11/17 07:53:01;;;;;;;5.30;1.70;;;12.10;99.90;;;;;;5026494;28;20021;-75
2022/11/17 07:55:27;;;;;;;5.80;2.08;;;12.10;99.90;;;;;;5031538;28;20021;-75
2022/11/17 07:58:02;;;;;;;4.57;1.15;;;12.10;99.90;;;;;;5031099;28;20017;-76
2022/11/17 08:00:30;;;;;;;7.78;1.40;;;12.20;99.90;;;;;;5033087;28;20428;-75
2022/11/17 08:03:00;;;;;;;3.90;1.48;;;12.20;99.90;;;;;;5027715;28;20025;-76
2022/11/17 08:05:29;;;;;;;7.72;1.63;;;12.20;99.90;;;;;;5015133;28;20026;-74
2022/11/17 08:07:56;;;;;;;3.20;1.40;;;12.20;99.90;;;;;;5036396;28;20017;-76
2022/11/17 08:10:23;;;;;;;4.53;1.48;;;12.10;99.90;;;;;;5042752;28;20084;-71
2022/11/17 08:12:55;;;;;;;5.63;1.55;;;12.10;99.90;;;;;;5031812;28;20016;-71
2022/11/17 08:15:21;;;;;;;3.22;1.52;;;12.10;99.90;;;;;;5029648;28;20033;-76
2022/11/17 08:17:52;;;;;;;3.78;1.02;;;12.20;99.90;;;;;;5026753;28;20029;-77
2022/11/17 08:20:17;;;;;;;4.75;1.00;;;12.20;99.90;;;;;;5029323;28;20018;-78
2022/11/17 08:22:45;;;;;;;7.68;1.50;;;12.20;99.90;;;;;;5028851;28;20366;-74
2022/11/17 08:25:11;;;;;;;6.55;1.67;;;12.10;99.90;;;;;;5029944;28;20104;-76
2022/11/17 08:27:36;;;;;;;6.20;1.67;;;12.20;99.90;;;;;;5031356;28;20025;-76
2022/11/17 08:30:03;;;;;;;7.00;1.50;;;12.10;99.90;;;;;;5030908;28;20051;-75
2022/11/17 08:32:28;;;;;;;3.97;1.38;;;12.10;99.90;;;;;;5032264;28;20113;-76
2022/11/17 08:34:56;;;;;;;7.78;2.13;;;12.10;99.90;;;;;;5029928;28;20128;-74
2022/11/17 08:37:22;;;;;;;34.90;10.43;;;12.10;99.90;;;;;;5031959;28;20132;-71
2022/11/17 08:39:47;;;;;;;4.03;1.30;;;12.10;99.90;;;;;;5033435;28;20205;-76
2022/11/17 08:42:15;;;;;;;2.53;1.15;;;12.00;99.90;;;;;;5051921;28;20119;-75
2022/11/17 08:44:41;;;;;;;5.35;1.02;;;12.00;99.90;;;;;;5032492;28;20035;-75
2022/11/17 08:47:06;;;;;;;6.15;0.90;;;12.10;99.90;;;;;;5031524;28;20018;-76
2022/11/17 08:49:32;;;;;;;2.67;0.80;;;12.10;99.90;;;;;;5033361;28;20315;-76
2022/11/17 08:51:58;;;;;;;2.03;0.98;;;11.90;99.90;;;;;;5034782;28;20068;-80
2022/11/17 08:54:25;;;;;;;5.07;1.30;;;11.90;99.90;;;;;;5034290;28;20029;-75
2022/11/17 08:56:56;;;;;;;2.13;0.82;;;12.00;99.90;;;;;;5043598;28;20124;-75
2022/11/17 08:59:22;;;;;;;4.47;0.90;;;11.90;99.90;;;;;;5039915;28;20083;-75
2022/11/17 09:01:47;;;;;;;5.55;0.85;;;11.90;99.90;;;;;;5040500;28;20066;-76
2022/11/17 09:04:16;;;;;;;1.33;0.57;;;11.80;99.90;;;;;;5032331;28;20865;-74
2022/11/17 09:06:42;;;;;;;3.95;1.08;;;11.70;99.90;;;;;;5031465;28;20022;-75
2022/11/17 09:09:10;;;;;;;5.93;0.65;;;11.90;99.90;;;;;;5023234;28;20028;-76
2022/11/17 09:11:37;;;;;;;3.60;1.02;;;11.80;99.90;;;;;;5032296;28;20437;-76
2022/11/17 09:14:08;;;;;;;2.13;1.00;;;11.80;99.90;;;;;;5034755;28;20116;-76
2022/11/17 09:16:36;;;;;;;2.70;0.70;;;11.70;99.90;;;;;;5039404;28;20033;-75
2022/11/17 09:19:02;;;;;;;1.33;0.60;;;11.80;99.90;;;;;;5040785;28;20312;-76
2022/11/17 09:21:30;;;;;;;5.20;0.90;;;11.70;99.90;;;;;;5042605;28;20040;-76
2022/11/17 09:23:56;;;;;;;2.33;0.80;;;11.70;99.90;;;;;;5043270;28;20021;-76
2022/11/17 09:26:22;;;;;;;2.33;0.80;;;11.60;99.90;;;;;;5032029;28;20132;-72
2022/11/17 09:28:50;;;;;;;4.38;0.85;;;11.70;99.90;;;;;;5032145;28;20057;-72
2022/11/17 09:31:20;;;;;;;3.67;0.63;;;11.80;99.90;;;;;;5034469;28;20021;-75
2022/11/17 09:33:46;;;;;;;6.60;0.90;;;11.70;99.90;;;;;;5035118;28;20036;-75
2022/11/17 09:36:13;;;;;;;2.70;0.70;;;11.90;99.90;;;;;;5033900;28;20030;-74
2022/11/17 09:38:40;;;;;;;6.57;0.82;;;11.90;99.90;;;;;;5036402;28;20046;-76
2022/11/17 09:41:38;;;;;;;1.50;0.80;;;12.10;99.90;;;;;;5038567;28;20367;-76
2022/11/17 09:44:10;;;;;;;2.33;0.75;;;12.30;99.90;;;;;;5034318;28;20096;-75
2022/11/17 09:46:47;;;;;;;3.17;1.00;;;12.30;99.90;;;;;;5035911;28;20017;-74
2022/11/17 09:49:34;;;;;;;3.83;0.80;;;12.50;99.90;;;;;;5038552;28;20029;-75
2022/11/17 09:52:10;;;;;;;1.30;0.60;;;12.70;99.90;;;;;;5033171;28;20043;-75
2022/11/17 09:54:45;;;;;;;2.10;0.68;;;12.80;99.90;;;;;;5033529;28;20033;-75
2022/11/17 09:57:21;;;;;;;5.65;1.10;;;12.90;99.90;;;;;;5041745;28;20083;-75
2022/11/17 09:59:55;;;;;;;4.20;0.90;;;12.80;99.90;;;;;;5031109;28;20052;-75
2022/11/17 10:02:23;;;;;;;4.55;1.10;;;12.80;99.90;;;;;;5032858;28;20428;-75
2022/11/17 10:04:49;;;;;;;5.82;0.75;;;12.80;99.90;;;;;;5032928;28;20460;-74
2022/11/17 10:07:17;;;;;;;2.13;0.70;;;12.70;99.90;;;;;;5041104;28;20108;-74
2022/11/17 10:09:46;;;;;;;0.93;0.55;;;12.60;99.90;;;;;;5037652;28;20049;-70
2022/11/17 10:12:27;;;;;;;1.50;0.80;;;12.70;99.90;;;;;;5037444;28;20125;-73
2022/11/17 10:14:54;;;;;;;0.85;0.50;;;12.60;99.90;;;;;;5041618;28;20032;-74
2022/11/17 10:17:19;;;;;;;3.20;0.75;;;12.50;99.90;;;;;;5029275;28;20824;-74
2022/11/17 10:19:45;;;;;;;4.68;0.90;;;12.60;99.90;;;;;;5028210;28;20112;-75
2022/11/17 10:22:33;;;;;;;1.40;0.80;;;12.70;99.90;;;;;;5027581;28;20048;-74
2022/11/17 10:24:59;;;;;;;14.18;4.05;;;12.60;99.90;;;;;;5029195;28;20116;-74
2022/11/17 10:27:31;;;;;;;3.42;0.60;;;12.70;99.90;;;;;;5034497;28;20112;-74
2022/11/17 10:30:01;;;;;;;3.92;0.73;;;12.70;99.90;;;;;;5050316;28;20052;-77
2022/11/17 10:32:31;;;;;;;2.55;0.75;;;12.70;99.90;;;;;;5031364;28;20534;-77
2022/11/17 10:35:19;;;;;;;3.20;0.70;;;12.70;99.90;;;;;;5038107;28;20079;-75
2022/11/17 10:37:55;;;;;;;2.40;1.45;;;12.70;99.90;;;;;;5036906;28;20044;-72
2022/11/17 10:40:30;;;;;;;6.15;1.08;;;12.70;99.90;;;;;;5030129;28;20029;-73
2022/11/17 10:43:24;;;;;;;2.97;0.60;;;12.60;99.90;;;;;;5027416;28;20025;-74
2022/11/17 10:45:54;;;;;;;2.25;0.60;;;12.60;99.90;;;;;;5033860;28;20033;-73
2022/11/17 10:48:52;;;;;;;2.28;0.80;;;12.60;99.90;;;;;;5028713;28;20071;-75
2022/11/17 10:51:21;;;;;;;2.45;0.75;;;12.60;99.90;;;;;;5028708;28;20021;-74
2022/11/17 10:54:13;;;;;;;1.20;1.00;;;12.80;99.90;;;;;;5025003;28;20339;-74
2022/11/17 10:56:48;;;;;;;3.45;0.68;;;12.90;99.90;;;;;;5016066;28;20052;-76
2022/11/17 10:59:17;;;;;;;2.72;0.95;;;12.80;99.90;;;;;;5034957;28;20366;-79
2022/11/17 11:01:47;;;;;;;2.08;0.80;;;12.90;99.90;;;;;;5032603;28;20328;-73
2022/11/17 11:04:38;;;;;;;3.50;0.90;;;13.10;99.90;;;;;;5031602;28;20037;-73
2022/11/17 11:07:21;;;;;;;4.90;1.08;;;13.10;99.90;;;;;;5052322;28;20024;-75
2022/11/17 11:09:53;;;;;;;1.98;0.50;;;13.20;99.90;;;;;;5023489;28;20049;-73
2022/11/17 11:12:29;;;;;;;2.00;0.85;;;13.20;99.90;;;;;;5029190;28;20025;-73
2022/11/17 11:15:01;;;;;;;1.88;1.00;;;13.30;99.90;;;;;;5026321;28;20120;-74
2022/11/17 11:17:28;;;;;;;2.73;1.27;;;13.20;99.90;;;;;;5031213;28;20025;-73
2022/11/17 11:19:55;;;;;;;2.95;0.90;;;13.20;99.90;;;;;;5037387;28;20270;-74
2022/11/17 11:22:42;;;;;;;3.60;0.80;;;13.10;99.90;;;;;;5036010;28;20116;-76
2022/11/17 11:25:39;;;;;;;4.25;0.68;;;13.10;99.90;;;;;;5029185;28;20030;-74
2022/11/17 11:28:35;;;;;;;1.95;0.57;;;13.20;99.90;;;;;;5030446;28;20026;-75
2022/11/17 11:31:20;;;;;;;0.70;0.60;;;13.10;99.90;;;;;;5028988;28;20103;-74
2022/11/17 11:34:04;;;;;;;2.33;0.60;;;13.10;99.90;;;;;;5028173;28;20027;-74
2022/11/17 11:36:35;;;;;;;0.90;0.50;;;13.30;99.90;;;;;;5035173;28;20025;-73
2022/11/17 11:39:22;;;;;;;1.92;0.73;;;13.20;99.90;;;;;;5025656;28;20033;-73
2022/11/17 11:42:14;;;;;;;3.85;0.60;;;13.30;99.90;;;;;;5027826;28;20025;-73
2022/11/17 11:44:53;;;;;;;2.88;0.95;;;13.30;99.90;;;;;;5028173;28;20046;-72
2022/11/17 11:47:43;;;;;;;2.75;0.63;;;13.20;99.90;;;;;;5029168;28;20484;-73
2022/11/17 11:50:17;;;;;;;2.03;0.80;;;13.20;99.90;;;;;;5033741;28;20434;-73
2022/11/17 11:52:53;;;;;;;1.33;0.60;;;13.20;99.90;;;;;;5035447;28;20155;-73
2022/11/17 11:55:35;;;;;;;2.28;0.70;;;13.30;99.90;;;;;;5034479;28;20037;-73
2022/11/17 11:58:24;;;;;;;4.05;0.90;;;13.30;99.90;;;;;;5034965;28;20034;-73
2022/11/17 12:00:54;;;;;;;2.75;1.00;;;13.30;99.90;;;;;;5026835;28;20073;-75
2022/11/17 12:03:40;;;;;;;2.83;0.73;;;13.20;99.90;;;;;;5033125;28;20028;-73
2022/11/17 12:06:40;;;;;;;4.70;1.10;;;13.30;99.90;;;;;;5029393;28;20025;-74
2022/11/17 12:09:24;;;;;;;5.35;1.10;;;13.40;99.90;;;;;;5033130;28;20018;-75
2022/11/17 12:12:03;;;;;;;2.63;0.80;;;13.30;99.90;;;;;;5039947;28;20459;-73
2022/11/17 12:14:36;;;;;;;3.03;1.00;;;13.30;99.90;;;;;;5033904;28;20025;-71
2022/11/17 12:17:17;;;;;;;8.70;0.85;;;13.30;99.90;;;;;;5031866;28;20033;-73
2022/11/17 12:19:52;;;;;;;1.95;0.70;;;13.30;99.90;;;;;;5032095;28;20049;-74
2022/11/17 12:22:33;;;;;;;1.05;0.70;;;13.20;99.90;;;;;;5030995;28;20017;-73
2022/11/17 12:25:04;;;;;;;2.78;1.13;;;13.20;99.90;;;;;;5043204;28;20017;-74
2022/11/17 12:27:40;;;;;;;2.70;0.90;;;13.30;99.90;;;;;;5025654;28;20021;-73
2022/11/17 12:30:35;;;;;;;1.30;0.73;;;13.20;99.90;;;;;;5043317;28;20105;-74
2022/11/17 12:33:07;;;;;;;3.53;1.23;;;13.30;99.90;;;;;;5034099;28;20017;-75
2022/11/17 12:35:35;;;;;;;5.05;1.15;;;13.20;99.90;;;;;;5033972;28;20052;-74
2022/11/17 12:38:16;;;;;;;2.53;0.90;;;13.30;99.90;;;;;;5026524;28;20052;-75
2022/11/17 12:40:49;;;;;;;1.60;1.02;;;13.20;99.90;;;;;;5020264;28;20887;-72
2022/11/17 12:43:14;;;;;;;;;;;13.40;99.90;;;;;;5030543;28;20037;-74
2022/11/17 12:45:52;;;;;;;0.73;0.70;;;13.30;99.90;;;;;;5029111;28;19905;-72
2022/11/17 12:48:39;;;;;;;3.30;1.00;;;13.30;99.90;;;;;;5030142;28;20030;-73
2022/11/17 12:51:31;;;;;;;7.50;0.90;;;13.20;99.90;;;;;;5027745;28;20069;-73
2022/11/17 12:54:19;;;;;;;3.03;1.20;;;13.20;99.90;;;;;;5041357;28;20454;-73
2022/11/17 12:56:55;;;;;;;6.30;1.10;;;13.20;99.90;;;;;;5032365;28;20029;-76
2022/11/17 12:59:50;;;;;;;2.90;0.85;;;13.10;99.90;;;;;;5033117;28;20065;-73
2022/11/17 13:02:31;;;;;;;2.08;0.90;;;13.20;99.90;;;;;;5032151;28;20040;-74
2022/11/17 13:05:41;;;;;;;5.30;0.93;;;13.20;99.90;;;;;;5032186;28;20025;-74
2022/11/17 13:08:21;;;;;;;4.82;0.90;;;13.10;99.90;;;;;;4986164;28;20045;-74
2022/11/17 13:10:48;;;;;;;3.70;0.80;;;13.00;99.90;;;;;;4986299;28;20444;-76
2022/11/17 13:13:20;;;;;;;1.17;0.93;;;13.00;99.90;;;;;;4978492;28;20387;-74
2022/11/17 13:15:55;;;;;;;2.13;0.82;;;13.00;99.90;;;;;;4983663;28;20117;-75
2022/11/17 13:18:37;;;;;;;7.65;1.10;;;12.90;99.90;;;;;;4996310;28;20038;-73
2022/11/17 13:21:14;;;;;;;1.75;0.98;;;12.80;99.90;;;;;;4973015;28;20486;-75
2022/11/17 13:23:44;;;;;;;1.05;0.73;;;12.80;99.90;;;;;;4995025;28;20037;-74
2022/11/17 13:26:25;;;;;;;4.97;0.70;;;12.70;99.90;;;;;;4989872;28;20034;-77
2022/11/17 13:29:05;;;;;;;5.18;1.02;;;12.60;99.90;;;;;;4989595;28;20034;-79
2022/11/17 13:31:31;;;;;;;1.88;1.10;;;12.70;99.90;;;;;;4991446;28;20361;-75
2022/11/17 13:33:56;;;;;;;3.53;1.17;;;12.80;99.90;;;;;;4990330;28;20037;-73
2022/11/17 13:36:26;;;;;;;0.85;0.70;;;12.70;99.90;;;;;;4991170;28;20487;-76
2022/11/17 13:38:55;;;;;;;8.60;1.00;;;12.70;99.90;;;;;;5003858;28;20056;-74
2022/11/17 13:41:23;;;;;;;4.80;0.77;;;12.80;99.90;;;;;;5034028;28;20051;-74
2022/11/17 13:43:50;;;;;;;1.92;0.70;;;12.90;99.90;;;;;;5024710;28;20978;-73